Time,TemperatureF,DewpointF,PressureIn,WindDirection,WindDirectionDegrees,WindSpeedMPH,WindSpeedGustMPH,Humidity,HourlyPrecipIn,Conditions,Clouds,dailyrainin,SoftwareType,DateUTC
2013-01-03 00:03:00,35.2,31.2,30.20,West,270,1.1,1.1,85,0.00,CLR,,0.00,WeatherDisplay:10.37,2013-01-03 06:03:00,
2013-01-03 00:08:00,35.1,31.3,30.21,West,270,1.1,0.0,86,0.00,CLR,,0.00,WeatherDisplay:10.37,2013-01-03 06:08:00,
2013-01-03 00:13:00,34.9,31.1,30.21,North,0,1.1,0.0,86,0.00,CLR,,0.00,WeatherDisplay:10.37,2013-01-03 06:13:00,
2013-01-03 00:18:00,34.7,30.9,30.21,NW,315,1.1,1.1,86,0.00,CLR,,0.00,WeatherDisplay:10.37,2013-01-03 06:18:00,
2013-01-03 00:23:00,34.7,30.9,30.20,NW,315,1.1,1.1,86,0.00,CLR,,0.00,WeatherDisplay:10.37,2013-01-03 06:23:00,
2013-01-03 00:28:00,34.7,30.9,30.20,West,270,0.0,0.0,86,0.00,CLR,,0.00,WeatherDisplay:10.37,2013-01-03 06:28:00,
2013-01-03 00:33:00,34.5,30.8,30.20,West,270,0.0,0.0,86,0.00,CLR,,0.00,WeatherDisplay:10.37,2013-01-03 06:33:00,
2013-01-03 00:38:00,34.3,30.6,30.20,West,270,1.1,1.1,86,0.00,CLR,,0.00,WeatherDisplay:10.37,2013-01-03 06:38:00,
2013-01-03 00:43:00,34.2,30.4,30.20,NW,315,2.3,2.3,86,0.00,CLR,,0.00,WeatherDisplay:10.37,2013-01-03 06:43:00,
2013-01-03 00:48:00,34.3,30.9,30.20,West,270,1.6,1.6,87,0.00,CLR,,0.00,WeatherDisplay:10.37,2013-01-03 06:48:00,
2013-01-03 00:53:00,34.3,30.9,30.20,NW,315,1.1,1.1,87,0.00,CLR,,0.00,WeatherDisplay:10.37,2013-01-03 06:53:00,
2013-01-03 00:58:00,34.2,30.7,30.20,NW,315,1.6,1.6,87,0.00,CLR,,0.00,WeatherDisplay:10.37,2013-01-03 06:58:00,
2013-01-03 01:03:00,34.0,30.5,30.20,NW,315,1.1,0.0,87,0.00,CLR,,0.00,WeatherDisplay:10.37,2013-01-03 07:03:00,
2013-01-03 01:08:00,34.0,30.5,30.20,West,270,1.1,0.0,87,0.00,CLR,,0.00,WeatherDisplay:10.37,2013-01-03 07:08:00,
2013-01-03 01:13:00,33.8,30.3,30.20,West,270,1.1,0.0,87,0.00,CLR,,0.00,WeatherDisplay:10.37,2013-01-03 07:13:00,
2013-01-03 01:18:00,33.6,30.4,30.20,West,270,0.0,0.0,88,0.00,CLR,,0.00,WeatherDisplay:10.37,2013-01-03 07:18:00,
2013-01-03 01:23:00,33.3,30.1,30.20,West,270,1.1,0.0,88,0.00,CLR,,0.00,WeatherDisplay:10.37,2013-01-03 07:23:00,
2013-01-03 01:28:00,33.3,30.1,30.20,West,270,0.0,0.0,88,0.00,CLR,,0.00,WeatherDisplay:10.37,2013-01-03 07:28:00,
2013-01-03 01:33:00,33.1,29.9,30.21,West,270,0.0,0.0,88,0.00,CLR,,0.00,WeatherDisplay:10.37,2013-01-03 07:33:00,
2013-01-03 01:38:00,33.1,30.2,30.20,West,270,0.0,0.0,89,0.00,CLR,,0.00,WeatherDisplay:10.37,2013-01-03 07:38:00,
2013-01-03 01:43:00,32.9,30.0,30.20,South,180,0.0,0.0,89,0.00,CLR,,0.00,WeatherDisplay:10.37,2013-01-03 07:43:00,
2013-01-03 01:48:00,32.9,30.0,30.21,West,270,1.1,1.1,89,0.00,CLR,,0.00,WeatherDisplay:10.37,2013-01-03 07:48:00,
2013-01-03 01:53:00,32.9,30.0,30.21,West,270,1.1,0.0,89,0.00,CLR,,0.00,WeatherDisplay:10.37,2013-01-03 07:53:00,
2013-01-03 01:58:00,32.7,29.8,30.21,West,270,1.1,0.0,89,0.00,CLR,,0.00,WeatherDisplay:10.37,2013-01-03 07:58:00,
2013-01-03 02:03:00,32.7,29.8,30.20,West,270,0.0,0.0,89,0.00,CLR,,0.00,WeatherDisplay:10.37,2013-01-03 08:03:00,
2013-01-03 02:08:00,32.5,29.7,30.20,West,270,1.1,0.0,89,0.00,CLR,,0.00,WeatherDisplay:10.37,2013-01-03 08:08:00,
2013-01-03 02:13:00,32.4,29.5,30.20,West,270,1.1,0.0,89,0.00,CLR,,0.00,WeatherDisplay:10.37,2013-01-03 08:13:00,
2013-01-03 02:18:00,32.2,29.3,30.20,West,270,0.0,0.0,89,0.00,CLR,,0.00,WeatherDisplay:10.37,2013-01-03 08:18:00,
2013-01-03 02:23:00,32.0,29.4,30.21,West,270,0.0,0.0,90,0.00,CLR,,0.00,WeatherDisplay:10.37,2013-01-03 08:23:00,
2013-01-03 02:28:00,32.0,29.4,30.21,West,270,0.0,0.0,90,0.00,CLR,,0.00,WeatherDisplay:10.37,2013-01-03 08:28:00,
2013-01-03 02:33:00,32.0,29.4,30.21,West,270,1.1,0.0,90,0.00,CLR,,0.00,WeatherDisplay:10.37,2013-01-03 08:33:00,
2013-01-03 02:38:00,31.8,29.5,30.22,West,270,1.1,1.1,91,0.00,CLR,,0.00,WeatherDisplay:10.37,2013-01-03 08:38:00,
2013-01-03 02:43:00,31.5,29.1,30.21,NW,315,2.3,2.3,91,0.00,CLR,,0.00,WeatherDisplay:10.37,2013-01-03 08:43:00,
2013-01-03 02:48:00,31.1,28.8,30.21,NW,315,1.1,1.1,91,0.00,CLR,,0.00,WeatherDisplay:10.37,2013-01-03 08:48:00,
2013-01-03 02:53:00,30.7,28.4,30.21,West,270,2.3,2.3,91,0.00,CLR,,0.00,WeatherDisplay:10.37,2013-01-03 08:53:00,
2013-01-03 02:58:00,30.4,28.1,30.21,West,270,1.1,1.1,91,0.00,CLR,,0.00,WeatherDisplay:10.37,2013-01-03 08:58:00,
2013-01-03 03:03:00,30.0,28.0,30.21,West,270,1.1,1.1,92,0.00,CLR,,0.00,WeatherDisplay:10.37,2013-01-03 09:03:00,
2013-01-03 03:08:00,29.8,27.8,30.21,West,270,1.1,0.0,92,0.00,CLR,,0.00,WeatherDisplay:10.37,2013-01-03 09:08:00,
2013-01-03 03:13:00,29.8,28.1,30.21,West,270,1.1,0.0,93,0.00,CLR,,0.00,WeatherDisplay:10.37,2013-01-03 09:13:00,
2013-01-03 03:18:00,29.5,27.7,30.21,West,270,1.1,0.0,93,0.00,CLR,,0.00,WeatherDisplay:10.37,2013-01-03 09:18:00,
2013-01-03 03:23:00,29.5,27.7,30.22,West,270,0.0,0.0,93,0.00,CLR,,0.00,WeatherDisplay:10.37,2013-01-03 09:23:00,
2013-01-03 03:28:00,29.8,28.1,30.21,West,270,1.1,0.0,93,0.00,CLR,,0.00,WeatherDisplay:10.37,2013-01-03 09:28:00,
2013-01-03 03:33:00,29.8,28.3,30.21,NW,315,1.1,1.1,94,0.00,CLR,,0.00,WeatherDisplay:10.37,2013-01-03 09:33:00,
2013-01-03 03:38:00,29.7,28.1,30.21,NW,315,1.1,1.1,94,0.00,CLR,,0.00,WeatherDisplay:10.37,2013-01-03 09:38:00,
2013-01-03 03:43:00,29.5,28.0,30.21,West,270,1.1,1.6,94,0.00,CLR,,0.00,WeatherDisplay:10.37,2013-01-03 09:43:00,
2013-01-03 03:48:00,29.7,28.1,30.21,West,270,1.1,1.1,94,0.00,CLR,,0.00,WeatherDisplay:10.37,2013-01-03 09:48:00,
2013-01-03 03:53:00,30.0,28.8,30.21,West,270,1.1,1.1,95,0.00,CLR,,0.00,WeatherDisplay:10.37,2013-01-03 09:53:00,
2013-01-03 03:58:00,30.0,28.8,30.21,West,270,1.1,0.0,95,0.00,CLR,,0.00,WeatherDisplay:10.37,2013-01-03 09:58:00,
2013-01-03 04:03:00,30.0,28.8,30.21,West,270,0.0,0.0,95,0.00,CLR,,0.00,WeatherDisplay:10.37,2013-01-03 10:03:00,
2013-01-03 04:08:00,29.8,28.6,30.21,West,270,0.0,0.0,95,0.00,CLR,,0.00,WeatherDisplay:10.37,2013-01-03 10:08:00,
2013-01-03 04:13:00,29.7,28.4,30.22,South,180,1.1,0.0,95,0.00,CLR,,0.00,WeatherDisplay:10.37,2013-01-03 10:13:00,
2013-01-03 04:18:00,29.8,28.6,30.22,West,270,0.0,0.0,95,0.00,CLR,,0.00,WeatherDisplay:10.37,2013-01-03 10:18:00,
2013-01-03 04:23:00,29.7,28.4,30.21,West,270,0.0,0.0,95,0.00,CLR,,0.00,WeatherDisplay:10.37,2013-01-03 10:23:00,
2013-01-03 04:28:00,29.5,28.2,30.22,West,270,1.1,0.0,95,0.00,CLR,,0.00,WeatherDisplay:10.37,2013-01-03 10:28:00,
2013-01-03 04:33:00,29.3,28.0,30.22,West,270,0.0,0.0,95,0.00,CLR,,0.00,WeatherDisplay:10.37,2013-01-03 10:33:00,
2013-01-03 04:38:00,29.3,28.0,30.22,South,180,0.0,0.0,95,0.00,CLR,,0.00,WeatherDisplay:10.37,2013-01-03 10:38:00,
2013-01-03 04:43:00,29.3,28.0,30.22,South,180,0.0,0.0,95,0.00,CLR,,0.00,WeatherDisplay:10.37,2013-01-03 10:43:00,
2013-01-03 04:48:00,29.1,27.9,30.23,South,180,0.0,0.0,95,0.00,CLR,,0.00,WeatherDisplay:10.37,2013-01-03 10:48:00,
2013-01-03 04:53:00,28.9,27.7,30.23,South,180,0.0,0.0,95,0.00,CLR,,0.00,WeatherDisplay:10.37,2013-01-03 10:53:00,
2013-01-03 04:58:00,28.8,27.5,30.23,South,180,0.0,0.0,95,0.00,CLR,,0.00,WeatherDisplay:10.37,2013-01-03 10:58:00,
2013-01-03 05:03:00,28.6,27.3,30.23,South,180,0.0,0.0,95,0.00,CLR,,0.00,WeatherDisplay:10.37,2013-01-03 11:03:00,
2013-01-03 05:08:00,28.4,27.2,30.22,NW,315,0.0,0.0,95,0.00,CLR,,0.00,WeatherDisplay:10.37,2013-01-03 11:08:00,
2013-01-03 05:13:00,28.4,27.2,30.23,NW,315,1.1,1.1,95,0.00,CLR,,0.00,WeatherDisplay:10.37,2013-01-03 11:13:00,
2013-01-03 05:18:00,28.2,25.9,30.23,NW,315,1.1,0.0,91,0.00,CLR,,0.00,WeatherDisplay:10.37,2013-01-03 11:18:00,
2013-01-03 05:23:00,28.0,25.8,30.22,NW,315,1.1,0.0,91,0.00,CLR,,0.00,WeatherDisplay:10.37,2013-01-03 11:23:00,
2013-01-03 05:28:00,27.9,25.6,30.23,NW,315,0.0,0.0,91,0.00,CLR,,0.00,WeatherDisplay:10.37,2013-01-03 11:28:00,
2013-01-03 05:33:00,27.7,25.4,30.23,NW,315,1.1,1.1,91,0.00,CLR,,0.00,WeatherDisplay:10.37,2013-01-03 11:33:00,
2013-01-03 05:38:00,27.7,25.4,30.23,NW,315,1.1,1.1,91,0.00,CLR,,0.00,WeatherDisplay:10.37,2013-01-03 11:38:00,
2013-01-03 05:43:00,27.5,25.2,30.23,West,270,1.1,1.1,91,0.00,CLR,,0.00,WeatherDisplay:10.37,2013-01-03 11:43:00,
2013-01-03 05:48:00,27.5,25.2,30.23,West,270,1.1,1.1,91,0.00,CLR,,0.00,WeatherDisplay:10.37,2013-01-03 11:48:00,
2013-01-03 05:53:00,27.5,25.2,30.23,West,270,1.1,0.0,91,0.00,CLR,,0.00,WeatherDisplay:10.37,2013-01-03 11:53:00,
2013-01-03 05:58:00,27.5,25.2,30.24,NW,315,1.1,0.0,91,0.00,CLR,,0.00,WeatherDisplay:10.37,2013-01-03 11:58:00,
2013-01-03 06:03:00,27.3,25.0,30.24,NW,315,1.1,1.1,91,0.00,CLR,,0.00,WeatherDisplay:10.37,2013-01-03 12:03:00,
2013-01-03 06:08:00,27.3,25.0,30.24,West,270,1.1,0.0,91,0.00,CLR,,0.00,WeatherDisplay:10.37,2013-01-03 12:08:00,
2013-01-03 06:13:00,27.5,25.2,30.24,West,270,1.1,1.1,91,0.00,CLR,,0.00,WeatherDisplay:10.37,2013-01-03 12:13:00,
2013-01-03 06:18:00,27.9,25.8,30.24,West,270,1.1,0.0,92,0.00,CLR,,0.00,WeatherDisplay:10.37,2013-01-03 12:18:00,
2013-01-03 06:23:00,27.9,25.8,30.24,West,270,1.1,0.0,92,0.00,CLR,,0.00,WeatherDisplay:10.37,2013-01-03 12:23:00,
2013-01-03 06:28:00,28.2,26.2,30.24,West,270,1.1,0.0,92,0.00,CLR,,0.00,WeatherDisplay:10.37,2013-01-03 12:28:00,
2013-01-03 06:33:00,28.4,27.4,30.24,West,270,1.6,1.6,96,0.00,CLR,,0.00,WeatherDisplay:10.37,2013-01-03 12:33:00,
2013-01-03 06:38:00,28.4,27.4,30.24,West,270,1.1,0.0,96,0.00,CLR,,0.00,WeatherDisplay:10.37,2013-01-03 12:38:00,
2013-01-03 06:43:00,28.6,27.6,30.24,West,270,1.1,0.0,96,0.00,CLR,,0.00,WeatherDisplay:10.37,2013-01-03 12:43:00,
2013-01-03 06:48:00,28.9,27.9,30.25,West,270,0.0,0.0,96,0.00,CLR,,0.00,WeatherDisplay:10.37,2013-01-03 12:48:00,
2013-01-03 06:53:00,29.1,28.1,30.25,SW,225,1.1,0.0,96,0.00,CLR,,0.00,WeatherDisplay:10.37,2013-01-03 12:53:00,
2013-01-03 06:58:00,29.1,28.1,30.25,West,270,1.1,0.0,96,0.00,CLR,,0.00,WeatherDisplay:10.37,2013-01-03 12:58:00,
2013-01-03 07:03:00,29.3,28.3,30.25,West,270,0.0,0.0,96,0.00,CLR,,0.00,WeatherDisplay:10.37,2013-01-03 13:03:00,
2013-01-03 07:08:00,29.1,28.1,30.26,West,270,0.0,0.0,96,0.00,CLR,,0.00,WeatherDisplay:10.37,2013-01-03 13:08:00,
2013-01-03 07:13:00,28.9,27.9,30.26,West,270,0.0,0.0,96,0.00,CLR,,0.00,WeatherDisplay:10.37,2013-01-03 13:13:00,
2013-01-03 07:18:00,28.8,27.8,30.26,West,270,0.0,0.0,96,0.00,CLR,,0.00,WeatherDisplay:10.37,2013-01-03 13:18:00,
2013-01-03 07:23:00,28.6,27.6,30.26,West,270,0.0,0.0,96,0.00,CLR,,0.00,WeatherDisplay:10.37,2013-01-03 13:23:00,
2013-01-03 07:28:00,28.6,27.6,30.26,West,270,0.0,0.0,96,0.00,CLR,,0.00,WeatherDisplay:10.37,2013-01-03 13:28:00,
2013-01-03 07:33:00,28.6,27.6,30.27,West,270,0.0,0.0,96,0.00,CLR,,0.00,WeatherDisplay:10.37,2013-01-03 13:33:00,
2013-01-03 07:38:00,28.6,27.6,30.27,West,270,0.0,0.0,96,0.00,CLR,,0.00,WeatherDisplay:10.37,2013-01-03 13:38:00,
2013-01-03 07:43:00,28.4,27.4,30.27,West,270,0.0,0.0,96,0.00,CLR,,0.00,WeatherDisplay:10.37,2013-01-03 13:43:00,
2013-01-03 07:48:00,28.4,27.4,30.27,West,270,0.0,0.0,96,0.00,CLR,,0.00,WeatherDisplay:10.37,2013-01-03 13:48:00,
2013-01-03 07:53:00,28.6,27.6,30.27,NW,315,0.0,0.0,96,0.00,CLR,,0.00,WeatherDisplay:10.37,2013-01-03 13:53:00,
2013-01-03 07:58:00,28.8,27.8,30.27,East,90,0.0,0.0,96,0.00,CLR,,0.00,WeatherDisplay:10.37,2013-01-03 13:58:00,
2013-01-03 08:03:00,28.9,27.9,30.28,SW,225,0.0,0.0,96,0.00,CLR,,0.00,WeatherDisplay:10.37,2013-01-03 14:03:00,
2013-01-03 08:08:00,29.1,28.4,30.28,SW,225,0.0,0.0,97,0.00,CLR,,0.00,WeatherDisplay:10.37,2013-01-03 14:08:00,
2013-01-03 08:13:00,29.7,28.9,30.28,SW,225,0.0,0.0,97,0.00,CLR,,0.00,WeatherDisplay:10.37,2013-01-03 14:13:00,
2013-01-03 08:18:00,30.0,29.3,30.28,North,0,0.0,0.0,97,0.00,CLR,,0.00,WeatherDisplay:10.37,2013-01-03 14:18:00,
2013-01-03 08:23:00,31.5,30.5,30.28,West,270,1.1,0.0,96,0.00,CLR,,0.00,WeatherDisplay:10.37,2013-01-03 14:23:00,
2013-01-03 08:28:00,32.5,31.3,30.28,SW,225,1.1,0.0,95,0.00,CLR,,0.00,WeatherDisplay:10.37,2013-01-03 14:28:00,
2013-01-03 08:33:00,33.3,32.0,30.28,NE,45,1.6,1.6,95,0.00,CLR,,0.00,WeatherDisplay:10.37,2013-01-03 14:33:00,
2013-01-03 08:38:00,33.8,32.3,30.28,NW,315,2.3,2.3,94,0.00,CLR,,0.00,WeatherDisplay:10.37,2013-01-03 14:38:00,
2013-01-03 08:43:00,33.8,32.3,30.29,North,0,2.2,2.2,94,0.00,CLR,,0.00,WeatherDisplay:10.37,2013-01-03 14:43:00,
2013-01-03 08:48:00,34.9,33.3,30.30,West,270,2.3,2.3,94,0.00,CLR,,0.00,WeatherDisplay:10.37,2013-01-03 14:48:00,
2013-01-03 08:53:00,36.1,34.3,30.30,NW,315,2.3,2.3,93,0.00,CLR,,0.00,WeatherDisplay:10.37,2013-01-03 14:53:00,
2013-01-03 08:58:00,37.6,36.8,30.30,NW,315,1.1,1.1,97,0.00,CLR,,0.00,WeatherDisplay:10.37,2013-01-03 14:58:00,
2013-01-03 09:03:00,39.4,37.8,30.30,NE,45,1.1,1.1,94,0.00,CLR,,0.00,WeatherDisplay:10.37,2013-01-03 15:03:00,
2013-01-03 09:08:00,41.0,38.3,30.30,North,0,4.6,4.6,90,0.00,CLR,,0.00,WeatherDisplay:10.37,2013-01-03 15:08:00,
2013-01-03 09:13:00,41.5,37.4,30.30,SSW,202,2.3,2.3,85,0.00,CLR,,0.00,WeatherDisplay:10.37,2013-01-03 15:13:00,
2013-01-03 09:18:00,41.2,36.4,30.29,NE,45,5.8,5.8,83,0.00,CLR,,0.00,WeatherDisplay:10.37,2013-01-03 15:18:00,
2013-01-03 09:23:00,40.1,34.4,30.30,NW,315,3.5,3.5,80,0.00,CLR,,0.00,WeatherDisplay:10.37,2013-01-03 15:23:00,
2013-01-03 09:28:00,39.7,33.8,30.30,North,0,2.3,2.3,79,0.00,CLR,,0.00,WeatherDisplay:10.37,2013-01-03 15:28:00,
2013-01-03 09:33:00,40.5,34.8,30.29,NW,315,6.9,6.9,80,0.00,CLR,,0.00,WeatherDisplay:10.37,2013-01-03 15:33:00,
2013-01-03 09:38:00,40.6,34.3,30.30,North,0,4.6,4.6,78,0.00,CLR,,0.00,WeatherDisplay:10.37,2013-01-03 15:38:00,
2013-01-03 09:43:00,41.4,34.7,30.30,SE,135,3.5,3.5,77,0.00,CLR,,0.00,WeatherDisplay:10.37,2013-01-03 15:43:00,
2013-01-03 09:48:00,41.7,34.4,30.31,North,0,4.6,4.6,75,0.00,CLR,,0.00,WeatherDisplay:10.37,2013-01-03 15:48:00,
2013-01-03 09:53:00,41.5,33.9,30.31,NW,315,1.1,2.2,74,0.00,CLR,,0.00,WeatherDisplay:10.37,2013-01-03 15:53:00,
2013-01-03 09:58:00,41.9,34.2,30.31,NW,315,2.3,2.3,74,0.00,CLR,,0.00,WeatherDisplay:10.37,2013-01-03 15:58:00,
2013-01-03 10:03:00,42.1,34.0,30.31,East,90,3.5,3.5,73,0.00,CLR,,0.00,WeatherDisplay:10.37,2013-01-03 16:03:00,
2013-01-03 10:08:00,42.1,33.7,30.31,NW,315,3.5,3.5,72,0.00,CLR,,0.00,WeatherDisplay:10.37,2013-01-03 16:08:00,
2013-01-03 10:13:00,42.4,33.7,30.31,North,0,4.6,4.6,71,0.00,CLR,,0.00,WeatherDisplay:10.37,2013-01-03 16:13:00,
2013-01-03 10:18:00,42.4,33.7,30.31,NW,315,4.6,4.6,71,0.00,CLR,,0.00,WeatherDisplay:10.37,2013-01-03 16:18:00,
2013-01-03 10:23:00,43.3,34.2,30.31,ENE,68,4.6,4.6,70,0.00,CLR,,0.00,WeatherDisplay:10.37,2013-01-03 16:23:00,
2013-01-03 10:28:00,43.5,33.7,30.31,North,0,4.6,4.6,68,0.00,CLR,,0.00,WeatherDisplay:10.37,2013-01-03 16:28:00,
2013-01-03 10:33:00,43.9,33.3,30.31,NW,315,5.8,5.8,66,0.00,CLR,,0.00,WeatherDisplay:10.37,2013-01-03 16:33:00,
2013-01-03 10:38:00,44.2,33.2,30.31,North,0,4.6,4.6,65,0.00,CLR,,0.00,WeatherDisplay:10.37,2013-01-03 16:38:00,
2013-01-03 10:43:00,44.6,33.2,30.31,NE,45,3.5,3.5,64,0.00,CLR,,0.00,WeatherDisplay:10.37,2013-01-03 16:43:00,
2013-01-03 10:48:00,45.0,33.1,30.30,West,270,4.6,4.6,63,0.00,CLR,,0.00,WeatherDisplay:10.37,2013-01-03 16:48:00,
2013-01-03 10:53:00,45.7,33.8,30.30,North,0,4.6,4.6,63,0.00,CLR,,0.00,WeatherDisplay:10.37,2013-01-03 16:53:00,
2013-01-03 10:58:00,45.9,33.6,30.30,North,0,6.9,6.9,62,0.00,CLR,,0.00,WeatherDisplay:10.37,2013-01-03 16:58:00,
2013-01-03 11:03:00,46.2,33.9,30.29,ENE,68,5.8,5.8,62,0.00,CLR,,0.00,WeatherDisplay:10.37,2013-01-03 17:03:00,
2013-01-03 11:08:00,46.4,33.3,30.29,NE,45,5.8,5.8,60,0.00,CLR,,0.00,WeatherDisplay:10.37,2013-01-03 17:08:00,
2013-01-03 11:13:00,46.4,33.3,30.28,NE,45,5.8,5.8,60,0.00,CLR,,0.00,WeatherDisplay:10.37,2013-01-03 17:13:00,
2013-01-03 11:18:00,47.5,34.7,30.27,East,90,3.5,3.5,61,0.00,CLR,,0.00,WeatherDisplay:10.37,2013-01-03 17:18:00,
2013-01-03 11:23:00,47.5,34.3,30.27,NE,45,5.8,5.8,60,0.00,CLR,,0.00,WeatherDisplay:10.37,2013-01-03 17:23:00,
2013-01-03 11:28:00,47.5,34.3,30.28,NE,45,4.6,6.0,60,0.00,CLR,,0.00,WeatherDisplay:10.37,2013-01-03 17:28:00,
2013-01-03 11:33:00,47.8,33.8,30.28,East,90,4.6,4.6,58,0.00,CLR,,0.00,WeatherDisplay:10.37,2013-01-03 17:33:00,
2013-01-03 11:38:00,48.6,33.6,30.27,NE,45,6.9,6.9,56,0.00,CLR,,0.00,WeatherDisplay:10.37,2013-01-03 17:38:00,
2013-01-03 11:43:00,48.4,33.4,30.28,NW,315,4.6,4.6,56,0.00,CLR,,0.00,WeatherDisplay:10.37,2013-01-03 17:43:00,
2013-01-03 11:48:00,48.9,33.9,30.28,East,90,5.8,5.8,56,0.00,CLR,,0.00,WeatherDisplay:10.37,2013-01-03 17:48:00,
2013-01-03 11:53:00,49.3,33.8,30.27,ENE,68,3.5,3.5,55,0.00,CLR,,0.00,WeatherDisplay:10.37,2013-01-03 17:53:00,
2013-01-03 11:58:00,49.8,34.3,30.27,North,0,5.8,5.8,55,0.00,CLR,,0.00,WeatherDisplay:10.37,2013-01-03 17:58:00,
2013-01-03 12:03:00,49.5,33.5,30.27,East,90,2.3,2.3,54,0.00,CLR,,0.00,WeatherDisplay:10.37,2013-01-03 18:03:00,
2013-01-03 12:08:00,50.2,33.7,30.26,North,0,4.6,4.6,53,0.00,CLR,,0.00,WeatherDisplay:10.37,2013-01-03 18:08:00,
2013-01-03 12:13:00,50.2,33.2,30.26,North,0,8.1,8.1,52,0.00,CLR,,0.00,WeatherDisplay:10.37,2013-01-03 18:13:00,
2013-01-03 12:18:00,50.0,32.6,30.26,West,270,5.8,5.8,51,0.00,CLR,,0.00,WeatherDisplay:10.37,2013-01-03 18:18:00,
2013-01-03 12:23:00,50.4,32.4,30.25,NE,45,6.9,6.9,50,0.00,CLR,,0.00,WeatherDisplay:10.37,2013-01-03 18:23:00,
2013-01-03 12:28:00,50.9,33.4,30.25,NE,45,4.6,6.0,51,0.00,CLR,,0.00,WeatherDisplay:10.37,2013-01-03 18:28:00,
2013-01-03 12:33:00,51.6,32.6,30.25,WNW,292,4.5,4.5,48,0.00,CLR,,0.00,WeatherDisplay:10.37,2013-01-03 18:33:00,
2013-01-03 12:38:00,51.6,32.0,30.24,North,0,6.9,6.9,47,0.00,CLR,,0.00,WeatherDisplay:10.37,2013-01-03 18:38:00,
2013-01-03 12:43:00,51.3,32.2,30.24,NW,315,4.6,4.6,48,0.00,CLR,,0.00,WeatherDisplay:10.37,2013-01-03 18:43:00,
2013-01-03 12:48:00,51.6,33.1,30.23,East,90,2.3,2.3,49,0.00,CLR,,0.00,WeatherDisplay:10.37,2013-01-03 18:48:00,
2013-01-03 12:53:00,51.4,32.4,30.24,NW,315,3.5,3.5,48,0.00,CLR,,0.00,WeatherDisplay:10.37,2013-01-03 18:53:00,
2013-01-03 12:58:00,50.9,31.9,30.24,NE,45,3.5,3.5,48,0.00,CLR,,0.00,WeatherDisplay:10.37,2013-01-03 18:58:00,
2013-01-03 13:03:00,50.9,31.9,30.24,North,0,3.5,3.5,48,0.00,CLR,,0.00,WeatherDisplay:10.37,2013-01-03 19:03:00,
2013-01-03 13:08:00,51.1,32.1,30.24,NNW,338,5.8,5.8,48,0.00,CLR,,0.00,WeatherDisplay:10.37,2013-01-03 19:08:00,
2013-01-03 13:13:00,51.3,32.7,30.24,West,270,5.8,5.8,49,0.00,CLR,,0.00,WeatherDisplay:10.37,2013-01-03 19:13:00,
2013-01-03 13:18:00,51.8,31.7,30.24,NE,45,6.9,6.9,46,0.00,CLR,,0.00,WeatherDisplay:10.37,2013-01-03 19:18:00,
2013-01-03 13:54:00,52.5,32.3,30.23,NW,315,5.8,5.8,46,0.00,CLR,,0.00,WeatherDisplay:10.37,2013-01-03 19:54:00,
2013-01-03 13:59:00,52.3,31.6,30.23,North,0,3.5,3.5,45,0.00,CLR,,0.00,WeatherDisplay:10.37,2013-01-03 19:59:00,
2013-01-03 14:04:00,52.3,32.2,30.23,NW,315,4.6,4.6,46,0.00,CLR,,0.00,WeatherDisplay:10.37,2013-01-03 20:04:00,
2013-01-03 14:09:00,52.0,31.8,30.23,NW,315,5.8,5.8,46,0.00,CLR,,0.00,WeatherDisplay:10.37,2013-01-03 20:09:00,
2013-01-03 14:14:00,52.3,32.7,30.23,NE,45,5.8,5.8,47,0.00,CLR,,0.00,WeatherDisplay:10.37,2013-01-03 20:14:00,
2013-01-03 14:19:00,52.3,32.2,30.23,NW,315,6.9,6.9,46,0.00,CLR,,0.00,WeatherDisplay:10.37,2013-01-03 20:19:00,
2013-01-03 14:24:00,52.0,31.8,30.23,West,270,3.5,3.5,46,0.00,CLR,,0.00,WeatherDisplay:10.37,2013-01-03 20:24:00,
2013-01-03 14:29:00,52.2,32.0,30.23,North,0,4.6,4.6,46,0.00,CLR,,0.00,WeatherDisplay:10.37,2013-01-03 20:29:00,
2013-01-03 14:34:00,52.2,32.0,30.23,NE,45,3.5,3.5,46,0.00,CLR,,0.00,WeatherDisplay:10.37,2013-01-03 20:34:00,
2013-01-03 14:39:00,52.0,31.8,30.23,NE,45,4.6,4.6,46,0.00,CLR,,0.00,WeatherDisplay:10.37,2013-01-03 20:39:00,
2013-01-03 14:44:00,51.8,31.7,30.23,North,0,4.6,4.6,46,0.00,CLR,,0.00,WeatherDisplay:10.37,2013-01-03 20:44:00,
2013-01-03 14:49:00,51.8,32.2,30.23,NW,315,3.5,3.5,47,0.00,CLR,,0.00,WeatherDisplay:10.37,2013-01-03 20:49:00,
2013-01-03 14:55:00,51.8,32.7,30.23,West,270,5.8,5.8,48,0.00,CLR,,0.00,WeatherDisplay:10.37,2013-01-03 20:55:00,
2013-01-03 15:00:00,52.0,32.9,30.23,North,0,4.6,4.6,48,0.00,CLR,,0.00,WeatherDisplay:10.37,2013-01-03 21:00:00,
2013-01-03 15:05:00,52.5,33.4,30.23,North,0,3.5,3.5,48,0.00,CLR,,0.00,WeatherDisplay:10.37,2013-01-03 21:05:00,
2013-01-03 15:10:00,52.3,33.2,30.23,NW,315,5.8,5.8,48,0.00,CLR,,0.00,WeatherDisplay:10.37,2013-01-03 21:10:00,
2013-01-03 15:15:00,52.3,33.2,30.24,North,0,5.4,5.4,48,0.00,CLR,,0.00,WeatherDisplay:10.37,2013-01-03 21:15:00,
2013-01-03 15:20:00,52.0,32.9,30.23,WNW,292,5.8,5.8,48,0.00,CLR,,0.00,WeatherDisplay:10.37,2013-01-03 21:20:00,
2013-01-03 15:25:00,51.6,33.1,30.24,West,270,3.5,3.5,49,0.00,CLR,,0.00,WeatherDisplay:10.37,2013-01-03 21:25:00,
2013-01-03 15:30:00,51.6,33.1,30.23,SSW,202,3.5,3.5,49,0.00,CLR,,0.00,WeatherDisplay:10.37,2013-01-03 21:30:00,
2013-01-03 15:35:00,51.6,33.6,30.23,NW,315,4.6,4.6,50,0.00,CLR,,0.00,WeatherDisplay:10.37,2013-01-03 21:35:00,
2013-01-03 15:40:00,51.6,33.6,30.23,North,0,3.5,3.5,50,0.00,CLR,,0.00,WeatherDisplay:10.37,2013-01-03 21:40:00,
2013-01-03 15:45:00,51.6,33.6,30.23,NW,315,4.6,4.6,50,0.00,CLR,,0.00,WeatherDisplay:10.37,2013-01-03 21:45:00,
2013-01-03 15:50:00,51.6,33.1,30.23,North,0,3.5,3.5,49,0.00,CLR,,0.00,WeatherDisplay:10.37,2013-01-03 21:50:00,
2013-01-03 15:55:00,51.6,33.1,30.24,North,0,5.8,5.8,49,0.00,CLR,,0.00,WeatherDisplay:10.37,2013-01-03 21:55:00,
2013-01-03 16:00:00,51.4,32.4,30.23,West,270,2.3,3.8,48,0.00,CLR,,0.00,WeatherDisplay:10.37,2013-01-03 22:00:00,
2013-01-03 16:05:00,51.4,32.4,30.24,West,270,6.9,6.9,48,0.00,CLR,,0.00,WeatherDisplay:10.37,2013-01-03 22:05:00,
2013-01-03 16:10:00,51.4,32.4,30.24,NE,45,4.5,4.5,48,0.00,CLR,,0.00,WeatherDisplay:10.37,2013-01-03 22:10:00,
2013-01-03 16:15:00,51.3,32.2,30.24,WSW,248,4.6,4.6,48,0.00,CLR,,0.00,WeatherDisplay:10.37,2013-01-03 22:15:00,
2013-01-03 16:20:00,51.1,32.1,30.25,NW,315,3.8,3.8,48,0.00,CLR,,0.00,WeatherDisplay:10.37,2013-01-03 22:20:00,
2013-01-03 16:25:00,51.1,32.6,30.25,NW,315,3.5,3.5,49,0.00,CLR,,0.00,WeatherDisplay:10.37,2013-01-03 22:25:00,
2013-01-03 16:30:00,51.1,32.6,30.25,SW,225,2.3,2.3,49,0.00,CLR,,0.00,WeatherDisplay:10.37,2013-01-03 22:30:00,
2013-01-03 16:35:00,50.9,31.9,30.25,NW,315,3.5,3.5,48,0.00,CLR,,0.00,WeatherDisplay:10.37,2013-01-03 22:35:00,
2013-01-03 16:40:00,50.9,32.4,30.25,North,0,3.5,3.5,49,0.00,CLR,,0.00,WeatherDisplay:10.37,2013-01-03 22:40:00,
2013-01-03 16:45:00,50.7,31.7,30.25,North,0,2.3,2.3,48,0.00,CLR,,0.00,WeatherDisplay:10.37,2013-01-03 22:45:00,
2013-01-03 16:50:00,50.7,32.2,30.25,NW,315,2.3,2.3,49,0.00,CLR,,0.00,WeatherDisplay:10.37,2013-01-03 22:50:00,
2013-01-03 16:55:00,50.7,31.7,30.25,NW,315,5.8,5.8,48,0.00,CLR,,0.00,WeatherDisplay:10.37,2013-01-03 22:55:00,
2013-01-03 17:00:00,50.5,31.6,30.25,West,270,3.5,3.5,48,0.00,CLR,,0.00,WeatherDisplay:10.37,2013-01-03 23:00:00,
2013-01-03 17:05:00,50.5,32.1,30.25,NE,45,2.3,2.3,49,0.00,CLR,,0.00,WeatherDisplay:10.37,2013-01-03 23:05:00,
2013-01-03 17:10:00,50.4,31.4,30.26,North,0,5.8,5.8,48,0.00,CLR,,0.00,WeatherDisplay:10.37,2013-01-03 23:10:00,
2013-01-03 17:15:00,50.2,31.2,30.25,SE,135,3.1,3.1,48,0.00,CLR,,0.00,WeatherDisplay:10.37,2013-01-03 23:15:00,
2013-01-03 17:20:00,50.2,31.7,30.25,NW,315,3.5,3.5,49,0.00,CLR,,0.00,WeatherDisplay:10.37,2013-01-03 23:20:00,
2013-01-03 17:25:00,50.0,31.6,30.26,NW,315,5.8,5.8,49,0.00,CLR,,0.00,WeatherDisplay:10.37,2013-01-03 23:25:00,
2013-01-03 17:30:00,50.0,31.6,30.25,North,0,2.3,2.3,49,0.00,CLR,,0.00,WeatherDisplay:10.37,2013-01-03 23:30:00,
2013-01-03 17:35:00,49.8,32.4,30.26,NW,315,3.5,3.5,51,0.00,CLR,,0.00,WeatherDisplay:10.37,2013-01-03 23:35:00,
2013-01-03 17:40:00,49.6,32.2,30.26,North,0,2.3,2.3,51,0.00,CLR,,0.00,WeatherDisplay:10.37,2013-01-03 23:40:00,
2013-01-03 17:45:00,49.6,32.2,30.26,North,0,2.3,2.3,51,0.00,CLR,,0.00,WeatherDisplay:10.37,2013-01-03 23:45:00,
2013-01-03 17:50:00,49.5,32.6,30.26,West,270,2.3,2.3,52,0.00,CLR,,0.00,WeatherDisplay:10.37,2013-01-03 23:50:00,
2013-01-03 17:55:00,49.3,32.4,30.26,West,270,2.3,2.3,52,0.00,CLR,,0.00,WeatherDisplay:10.37,2013-01-03 23:55:00,
2013-01-03 18:00:00,49.3,32.9,30.26,West,270,1.1,0.0,53,0.00,CLR,,0.00,WeatherDisplay:10.37,2013-01-04 00:00:00,
2013-01-03 18:05:00,49.3,32.9,30.26,West,270,0.0,0.0,53,0.00,CLR,,0.00,WeatherDisplay:10.37,2013-01-04 00:05:00,
2013-01-03 18:10:00,48.9,33.0,30.26,West,270,1.1,1.1,54,0.00,CLR,,0.00,WeatherDisplay:10.37,2013-01-04 00:10:00,
2013-01-03 18:15:00,48.9,33.0,30.26,NW,315,2.3,2.3,54,0.00,CLR,,0.00,WeatherDisplay:10.37,2013-01-04 00:15:00,
2013-01-03 18:20:00,48.7,32.8,30.27,West,270,1.1,1.1,54,0.00,CLR,,0.00,WeatherDisplay:10.37,2013-01-04 00:20:00,
2013-01-03 18:25:00,48.7,32.8,30.27,NW,315,1.1,0.0,54,0.00,CLR,,0.00,WeatherDisplay:10.37,2013-01-04 00:25:00,
2013-01-03 18:30:00,48.6,32.7,30.26,NW,315,3.5,3.5,54,0.00,CLR,,0.00,WeatherDisplay:10.37,2013-01-04 00:30:00,
2013-01-03 18:35:00,48.6,33.1,30.27,North,0,1.1,1.1,55,0.00,CLR,,0.00,WeatherDisplay:10.37,2013-01-04 00:35:00,
2013-01-03 18:40:00,48.4,32.9,30.27,NW,315,1.1,1.1,55,0.00,CLR,,0.00,WeatherDisplay:10.37,2013-01-04 00:40:00,
2013-01-03 18:45:00,48.4,32.9,30.27,NW,315,1.1,1.1,55,0.00,CLR,,0.00,WeatherDisplay:10.37,2013-01-04 00:45:00,
2013-01-03 18:50:00,48.4,32.9,30.27,West,270,1.1,0.0,55,0.00,CLR,,0.00,WeatherDisplay:10.37,2013-01-04 00:50:00,
2013-01-03 18:55:00,48.4,32.5,30.28,NW,315,3.5,0.0,54,0.00,CLR,,0.00,WeatherDisplay:10.37,2013-01-04 00:55:00,
2013-01-03 19:00:00,48.4,32.5,30.28,North,0,1.1,0.0,54,0.00,CLR,,0.00,WeatherDisplay:10.37,2013-01-04 01:00:00,
2013-01-03 19:05:00,48.4,32.5,30.28,North,0,1.1,1.1,54,0.00,CLR,,0.00,WeatherDisplay:10.37,2013-01-04 01:05:00,
2013-01-03 19:10:00,48.2,32.3,30.28,NW,315,1.1,0.0,54,0.00,CLR,,0.00,WeatherDisplay:10.37,2013-01-04 01:10:00,
2013-01-03 19:15:00,48.0,32.6,30.28,West,270,1.1,0.0,55,0.00,CLR,,0.00,WeatherDisplay:10.37,2013-01-04 01:15:00,
2013-01-03 19:20:00,48.0,32.6,30.28,West,270,1.1,1.1,55,0.00,CLR,,0.00,WeatherDisplay:10.37,2013-01-04 01:20:00,
2013-01-03 19:25:00,48.0,32.6,30.28,West,270,0.0,0.0,55,0.00,CLR,,0.00,WeatherDisplay:10.37,2013-01-04 01:25:00,
2013-01-03 19:30:00,47.8,32.9,30.28,West,270,0.0,0.0,56,0.00,CLR,,0.00,WeatherDisplay:10.37,2013-01-04 01:30:00,
2013-01-03 19:35:00,47.7,32.7,30.28,West,270,0.0,0.0,56,0.00,CLR,,0.00,WeatherDisplay:10.37,2013-01-04 01:35:00,
2013-01-03 19:40:00,47.5,32.6,30.27,West,270,0.0,0.0,56,0.00,CLR,,0.00,WeatherDisplay:10.37,2013-01-04 01:40:00,
2013-01-03 19:45:00,47.5,32.6,30.28,West,270,1.1,1.1,56,0.00,CLR,,0.00,WeatherDisplay:10.37,2013-01-04 01:45:00,
2013-01-03 19:50:00,47.3,32.4,30.29,West,270,1.1,1.1,56,0.00,CLR,,0.00,WeatherDisplay:10.37,2013-01-04 01:50:00,
2013-01-03 19:55:00,47.3,32.8,30.29,West,270,1.1,1.1,57,0.00,CLR,,0.00,WeatherDisplay:10.37,2013-01-04 01:55:00,
2013-01-03 20:00:00,47.3,33.3,30.29,West,270,1.1,0.0,58,0.00,CLR,,0.00,WeatherDisplay:10.37,2013-01-04 02:00:00,
2013-01-03 20:05:00,47.3,33.3,30.29,West,270,0.0,0.0,58,0.00,CLR,,0.00,WeatherDisplay:10.37,2013-01-04 02:05:00,
2013-01-03 20:10:00,46.9,34.2,30.30,West,270,1.1,0.0,61,0.00,CLR,,0.00,WeatherDisplay:10.37,2013-01-04 02:10:00,
2013-01-03 20:15:00,46.9,33.8,30.29,West,270,1.1,0.0,60,0.00,CLR,,0.00,WeatherDisplay:10.37,2013-01-04 02:15:00,
2013-01-03 20:20:00,46.8,33.6,30.30,West,270,1.1,1.1,60,0.00,CLR,,0.00,WeatherDisplay:10.37,2013-01-04 02:20:00,
2013-01-03 20:25:00,46.9,33.3,30.30,West,270,2.3,2.3,59,0.00,CLR,,0.00,WeatherDisplay:10.37,2013-01-04 02:25:00,
2013-01-03 20:30:00,47.1,33.1,30.30,NW,315,1.1,1.1,58,0.00,CLR,,0.00,WeatherDisplay:10.37,2013-01-04 02:30:00,
2013-01-03 20:35:00,47.1,33.5,30.30,West,270,1.1,1.1,59,0.00,CLR,,0.00,WeatherDisplay:10.37,2013-01-04 02:35:00,
2013-01-03 20:40:00,47.1,33.1,30.30,West,270,2.3,2.3,58,0.00,CLR,,0.00,WeatherDisplay:10.37,2013-01-04 02:40:00,
2013-01-03 20:45:00,47.1,32.7,30.30,NW,315,2.3,2.3,57,0.00,CLR,,0.00,WeatherDisplay:10.37,2013-01-04 02:45:00,
2013-01-03 20:50:00,47.1,33.1,30.29,NW,315,2.3,2.3,58,0.00,CLR,,0.00,WeatherDisplay:10.37,2013-01-04 02:50:00,
2013-01-03 20:55:00,47.1,32.7,30.30,North,0,2.3,2.3,57,0.00,CLR,,0.00,WeatherDisplay:10.37,2013-01-04 02:55:00,
2013-01-03 21:00:00,47.1,32.7,30.29,North,0,3.5,3.5,57,0.00,CLR,,0.00,WeatherDisplay:10.37,2013-01-04 03:00:00,
2013-01-03 21:05:00,47.3,32.4,30.29,North,0,2.3,2.3,56,0.00,CLR,,0.00,WeatherDisplay:10.37,2013-01-04 03:05:00,
2013-01-03 21:10:00,47.3,32.4,30.29,North,0,2.3,0.0,56,0.00,CLR,,0.00,WeatherDisplay:10.37,2013-01-04 03:10:00,
2013-01-03 21:15:00,47.1,32.2,30.29,NW,315,3.5,3.5,56,0.00,CLR,,0.00,WeatherDisplay:10.37,2013-01-04 03:15:00,
2013-01-03 21:20:00,47.3,32.4,30.29,West,270,1.1,1.1,56,0.00,CLR,,0.00,WeatherDisplay:10.37,2013-01-04 03:20:00,
2013-01-03 21:25:00,47.3,31.9,30.29,NE,45,1.6,0.0,55,0.00,CLR,,0.00,WeatherDisplay:10.37,2013-01-04 03:25:00,
2013-01-03 21:30:00,47.3,31.9,30.29,North,0,5.8,5.8,55,0.00,CLR,,0.00,WeatherDisplay:10.37,2013-01-04 03:30:00,
2013-01-03 21:35:00,47.3,32.4,30.29,NW,315,1.1,0.0,56,0.00,CLR,,0.00,WeatherDisplay:10.37,2013-01-04 03:35:00,
2013-01-03 21:40:00,47.1,32.2,30.29,North,0,1.1,1.1,56,0.00,CLR,,0.00,WeatherDisplay:10.37,2013-01-04 03:40:00,
2013-01-03 21:45:00,47.1,32.2,30.30,NE,45,1.1,0.0,56,0.00,CLR,,0.00,WeatherDisplay:10.37,2013-01-04 03:45:00,
2013-01-03 21:50:00,47.1,32.2,30.29,NE,45,1.1,1.1,56,0.00,CLR,,0.00,WeatherDisplay:10.37,2013-01-04 03:50:00,
2013-01-03 21:55:00,47.1,32.2,30.28,SE,135,3.5,3.5,56,0.00,CLR,,0.00,WeatherDisplay:10.37,2013-01-04 03:55:00,
2013-01-03 22:00:00,46.9,32.0,30.28,West,270,2.3,0.0,56,0.00,CLR,,0.00,WeatherDisplay:10.37,2013-01-04 04:00:00,
2013-01-03 22:05:00,46.9,32.0,30.29,West,270,1.1,0.0,56,0.00,CLR,,0.00,WeatherDisplay:10.37,2013-01-04 04:05:00,
2013-01-03 22:10:00,46.9,32.5,30.29,South,180,1.1,1.1,57,0.00,CLR,,0.00,WeatherDisplay:10.37,2013-01-04 04:10:00,
2013-01-03 22:15:00,46.8,32.3,30.29,NE,45,2.3,2.3,57,0.00,CLR,,0.00,WeatherDisplay:10.37,2013-01-04 04:15:00,
2013-01-03 22:20:00,46.8,32.3,30.29,NE,45,0.0,0.7,57,0.00,CLR,,0.00,WeatherDisplay:10.37,2013-01-04 04:20:00,
2013-01-03 22:25:00,46.8,32.3,30.29,NE,45,1.1,0.0,57,0.00,CLR,,0.00,WeatherDisplay:10.37,2013-01-04 04:25:00,
2013-01-03 22:30:00,46.6,32.6,30.27,NE,45,1.6,0.0,58,0.00,CLR,,0.00,WeatherDisplay:10.37,2013-01-04 04:30:00,
2013-01-03 22:35:00,46.6,32.6,30.27,NE,45,2.3,2.3,58,0.00,CLR,,0.00,WeatherDisplay:10.37,2013-01-04 04:35:00,
2013-01-03 22:40:00,46.4,32.4,30.26,NE,45,2.3,2.3,58,0.00,CLR,,0.00,WeatherDisplay:10.37,2013-01-04 04:40:00,
2013-01-03 22:45:00,46.4,32.8,30.27,NE,45,1.1,1.1,59,0.00,CLR,,0.00,WeatherDisplay:10.37,2013-01-04 04:45:00,
2013-01-03 22:50:00,46.2,33.1,30.28,West,270,2.3,2.3,60,0.00,CLR,,0.00,WeatherDisplay:10.37,2013-01-04 04:50:00,
2013-01-03 22:55:00,46.0,32.9,30.28,NW,315,2.3,2.3,60,0.00,CLR,,0.00,WeatherDisplay:10.37,2013-01-04 04:55:00,
2013-01-03 23:01:00,46.0,32.9,30.28,West,270,1.1,1.6,60,0.00,CLR,,0.00,WeatherDisplay:10.37,2013-01-04 05:01:00,
2013-01-03 23:02:00,46.0,32.9,30.28,NW,315,2.3,2.3,60,0.00,CLR,,0.00,WeatherDisplay:10.37,2013-01-04 05:02:00,
2013-01-03 23:03:00,46.0,32.9,30.28,NW,315,2.3,2.3,60,0.00,CLR,,0.00,WeatherDisplay:10.37,2013-01-04 05:03:00,
2013-01-03 23:08:00,46.0,33.3,30.28,NW,315,1.1,1.1,61,0.00,CLR,,0.00,WeatherDisplay:10.37,2013-01-04 05:08:00,
2013-01-03 23:13:00,46.0,33.3,30.28,North,0,2.3,2.3,61,0.00,CLR,,0.00,WeatherDisplay:10.37,2013-01-04 05:13:00,
2013-01-03 23:18:00,46.0,33.3,30.29,NW,315,3.5,3.5,61,0.00,CLR,,0.00,WeatherDisplay:10.37,2013-01-04 05:18:00,
2013-01-03 23:23:00,46.0,33.3,30.29,NW,315,2.3,2.3,61,0.00,CLR,,0.00,WeatherDisplay:10.37,2013-01-04 05:23:00,
2013-01-03 23:28:00,46.0,32.9,30.29,North,0,3.5,3.5,60,0.00,CLR,,0.00,WeatherDisplay:10.37,2013-01-04 05:28:00,
2013-01-03 23:33:00,46.2,33.1,30.29,North,0,3.5,3.5,60,0.00,CLR,,0.00,WeatherDisplay:10.37,2013-01-04 05:33:00,
2013-01-03 23:38:00,46.2,33.1,30.30,West,270,1.1,1.1,60,0.00,CLR,,0.00,WeatherDisplay:10.37,2013-01-04 05:38:00,
2013-01-03 23:43:00,46.2,32.7,30.29,NW,315,2.3,2.3,59,0.00,CLR,,0.00,WeatherDisplay:10.37,2013-01-04 05:43:00,
2013-01-03 23:48:00,46.2,32.7,30.29,NW,315,1.1,1.1,59,0.00,CLR,,0.00,WeatherDisplay:10.37,2013-01-04 05:48:00,
2013-01-03 23:53:00,46.2,32.7,30.28,SW,225,2.3,2.3,59,0.00,CLR,,0.00,WeatherDisplay:10.37,2013-01-04 05:53:00,
2013-01-03 23:58:00,46.2,32.7,30.28,North,0,2.3,2.3,59,0.00,CLR,,0.00,WeatherDisplay:10.37,2013-01-04 05:58:00,